Time;durP1;ratioP1;P1;durP2;ratioP2;P2;SDS_P1;SDS_P2;PMS_P1;PMS_P2;Temp;Humidity;BMP_temperature;BMP_pressure;BME280_temperature;BME280_humidity;BME280_pressure;Samples;Min_cycle;Max_cycle;Signal;HPM_P1;HPM_P2
2023/06/29 00:01:46;;;;;;;;;;;;;;;21.41;100.00;101565.59;5052666;28;20043;-71
2023/06/29 00:04:16;;;;;;;;;;;;;;;21.33;100.00;101571.94;5045043;28;20381;-71
2023/06/29 00:06:43;;;;;;;;;;;;;;;21.26;100.00;101575.59;5037583;28;20023;-71
2023/06/29 00:09:09;;;;;;;;;;;;;;;21.20;100.00;101574.53;5055525;28;19928;-71
2023/06/29 00:11:36;;;;;;;;;;;;;;;21.12;100.00;101577.38;5048583;28;19991;-71
2023/06/29 00:14:03;;;;;;;;;;;;;;;21.06;100.00;101567.50;5048612;28;19932;-71
2023/06/29 00:16:30;;;;;;;;;;;;;;;21.00;100.00;101563.78;5032415;28;19928;-71
2023/06/29 00:19:00;;;;;;;;;;;;;;;20.93;100.00;101569.09;5058886;28;19925;-70
2023/06/29 00:21:28;;;;;;;;;;;;;;;20.88;100.00;101563.50;5050474;28;20442;-71
2023/06/29 00:23:54;;;;;;;;;;;;;;;20.84;100.00;101564.91;5046887;28;19982;-71
2023/06/29 00:26:21;;;;;;;;;;;;;;;20.82;100.00;101564.28;5046282;28;20357;-71
2023/06/29 00:28:47;;;;;;;;;;;;;;;20.78;100.00;101565.72;5036820;28;20421;-71
2023/06/29 00:31:14;;;;;;;;;;;;;;;20.72;100.00;101572.66;5058673;28;19925;-70
2023/06/29 00:33:40;;;;;;;;;;;;;;;20.68;100.00;101562.53;5047704;28;19936;-70
2023/06/29 00:36:06;;;;;;;;;;;;;;;20.64;100.00;101566.63;5053688;28;19924;-71
2023/06/29 00:38:33;;;;;;;;;;;;;;;20.62;100.00;101558.00;5044891;28;20014;-72
2023/06/29 00:40:59;;;;;;;;;;;;;;;20.59;100.00;101561.88;5052798;28;20444;-71
2023/06/29 00:43:26;;;;;;;;;;;;;;;20.57;100.00;101555.91;5052927;28;19966;-71
2023/06/29 00:45:52;;;;;;;;;;;;;;;20.54;100.00;101549.13;5059956;28;19925;-71
2023/06/29 00:48:18;;;;;;;;;;;;;;;20.49;100.00;101545.41;5044115;28;20374;-71
2023/06/29 00:50:45;;;;;;;;;;;;;;;20.46;100.00;101545.78;5019188;28;19936;-70
2023/06/29 00:53:11;;;;;;;;;;;;;;;20.42;100.00;101545.31;5042881;28;20291;-71
2023/06/29 00:55:38;;;;;;;;;;;;;;;20.39;100.00;101540.41;5050442;28;19935;-70
2023/06/29 00:58:04;;;;;;;;;;;;;;;20.38;100.00;101540.59;5054285;28;19925;-71
2023/06/29 01:00:31;;;;;;;;;;;;;;;20.30;100.00;101537.03;5059955;28;20341;-68
2023/06/29 01:02:58;;;;;;;;;;;;;;;20.28;100.00;101532.94;5049944;28;20023;-67
2023/06/29 01:05:25;;;;;;;;;;;;;;;20.27;100.00;101532.13;5037315;28;19932;-66
2023/06/29 01:08:12;;;;;;;;;;;;;;;20.25;100.00;101531.50;5052164;28;19991;-66
2023/06/29 01:10:38;;;;;;;;;;;;;;;20.25;100.00;101528.00;5048276;28;19936;-68
2023/06/29 01:13:05;;;;;;;;;;;;;;;20.24;100.00;101519.19;5046981;28;19925;-66
2023/06/29 01:15:33;;;;;;;;;;;;;;;20.24;100.00;101521.03;5052288;28;19932;-65
2023/06/29 01:18:03;;;;;;;;;;;;;;;20.24;100.00;101529.00;5038834;28;19925;-66
2023/06/29 01:20:31;;;;;;;;;;;;;;;20.21;100.00;101516.91;5048764;28;20464;-66
2023/06/29 01:23:17;;;;;;;;;;;;;;;20.21;100.00;101527.56;5057695;28;19929;-66
2023/06/29 01:25:44;;;;;;;;;;;;;;;20.19;100.00;101526.09;5053100;28;19925;-66
2023/06/29 01:28:11;;;;;;;;;;;;;;;20.18;100.00;101524.47;5065535;28;19925;-66
2023/06/29 01:30:39;;;;;;;;;;;;;;;20.17;100.00;101521.00;5057816;28;20308;-69
2023/06/29 01:33:09;;;;;;;;;;;;;;;20.16;100.00;101516.66;5045990;28;19925;-67
2023/06/29 01:35:35;;;;;;;;;;;;;;;20.18;100.00;101516.47;5061422;28;19932;-66
2023/06/29 01:38:07;;;;;;;;;;;;;;;20.17;100.00;101515.66;5068987;28;20304;-66
2023/06/29 01:40:34;;;;;;;;;;;;;;;20.17;100.00;101513.00;5058966;28;19924;-68
2023/06/29 01:43:01;;;;;;;;;;;;;;;20.17;100.00;101510.34;5061655;28;19982;-69
2023/06/29 01:45:28;;;;;;;;;;;;;;;20.18;100.00;101511.16;5058158;28;19959;-66
2023/06/29 01:47:55;;;;;;;;;;;;;;;20.18;100.00;101511.16;5057178;28;19964;-65
2023/06/29 01:50:22;;;;;;;;;;;;;;;20.19;100.00;101510.97;5064406;28;19929;-65
2023/06/29 01:52:49;;;;;;;;;;;;;;;20.23;100.00;101514.03;5057516;28;20380;-66
2023/06/29 01:55:15;;;;;;;;;;;;;;;20.25;100.00;101514.69;5062332;28;20011;-67
2023/06/29 01:57:41;;;;;;;;;;;;;;;20.26;100.00;101513.66;5051207;28;19928;-68
2023/06/29 02:00:08;;;;;;;;;;;;;;;20.27;100.00;101508.16;5059929;28;20180;-66
2023/06/29 02:02:35;;;;;;;;;;;;;;;20.29;100.00;101511.44;5053888;28;20356;-66
2023/06/29 02:05:01;;;;;;;;;;;;;;;20.31;100.00;101513.91;5056990;28;19932;-65
2023/06/29 02:07:28;;;;;;;;;;;;;;;20.31;100.00;101508.59;5067160;28;20688;-67
2023/06/29 02:09:55;;;;;;;;;;;;;;;20.33;100.00;101502.03;5058411;28;19933;-67
2023/06/29 02:12:21;;;;;;;;;;;;;;;20.36;100.00;101506.16;5052339;28;19933;-65
2023/06/29 02:14:47;;;;;;;;;;;;;;;20.39;100.00;101504.94;5063051;28;20018;-66
2023/06/29 02:17:14;;;;;;;;;;;;;;;20.40;100.00;101504.72;5060610;28;20341;-65
2023/06/29 02:19:40;;;;;;;;;;;;;;;20.41;100.00;101501.06;5067622;28;19928;-65
2023/06/29 02:22:06;;;;;;;;;;;;;;;20.45;100.00;101502.31;5060364;28;20392;-68
2023/06/29 02:24:34;;;;;;;;;;;;;;;20.47;100.00;101496.81;5067169;28;19932;-65
2023/06/29 02:27:01;;;;;;;;;;;;;;;20.52;100.00;101502.34;5055990;28;20377;-66
2023/06/29 02:29:27;;;;;;;;;;;;;;;20.55;100.00;101500.13;5062482;28;19928;-69
2023/06/29 02:31:54;;;;;;;;;;;;;;;20.59;100.00;101495.25;5051377;28;20483;-67
2023/06/29 02:34:20;;;;;;;;;;;;;;;20.62;100.00;101494.88;5055290;28;19929;-66
2023/06/29 02:36:46;;;;;;;;;;;;;;;20.65;100.00;101489.13;5066796;28;20015;-71
2023/06/29 02:39:13;;;;;;;;;;;;;;;20.64;100.00;101484.84;5056417;28;19968;-70
2023/06/29 02:41:39;;;;;;;;;;;;;;;20.65;100.00;101483.81;5049120;28;19925;-69
2023/06/29 02:44:06;;;;;;;;;;;;;;;20.68;100.00;101483.44;5054668;28;19936;-71
2023/06/29 02:46:32;;;;;;;;;;;;;;;20.70;100.00;101484.06;5066006;28;19978;-71
2023/06/29 02:48:59;;;;;;;;;;;;;;;20.73;100.00;101482.81;5065577;28;19936;-71
2023/06/29 02:51:25;;;;;;;;;;;;;;;20.74;100.00;101476.50;5053380;28;19967;-70
2023/06/29 02:53:52;;;;;;;;;;;;;;;20.76;100.00;101478.94;5062623;28;20022;-71
2023/06/29 02:56:18;;;;;;;;;;;;;;;20.74;100.00;101473.81;5054007;28;19924;-70
2023/06/29 02:58:44;;;;;;;;;;;;;;;20.75;100.00;101464.78;5065955;28;20014;-71
2023/06/29 03:01:11;;;;;;;;;;;;;;;20.78;100.00;101467.06;5060569;28;19924;-71
2023/06/29 03:03:37;;;;;;;;;;;;;;;20.80;100.00;101454.38;5062344;28;19972;-69
2023/06/29 03:06:04;;;;;;;;;;;;;;;20.81;100.00;101457.84;5064509;28;20632;-70
2023/06/29 03:08:30;;;;;;;;;;;;;;;20.84;100.00;101454.78;5055481;28;20407;-70
2023/06/29 03:10:57;;;;;;;;;;;;;;;20.84;100.00;101446.78;5054486;28;19924;-70
2023/06/29 03:13:23;;;;;;;;;;;;;;;20.81;100.00;101457.84;5058820;28;19982;-70
2023/06/29 03:15:50;;;;;;;;;;;;;;;20.79;100.00;101452.69;5066174;28;19991;-71
2023/06/29 03:18:17;;;;;;;;;;;;;;;20.83;100.00;101453.13;5046788;28;19928;-71
2023/06/29 03:20:43;;;;;;;;;;;;;;;20.85;100.00;101457.22;5064679;28;19974;-70
2023/06/29 03:23:09;;;;;;;;;;;;;;;20.84;100.00;101452.13;5058808;28;19928;-71
2023/06/29 03:25:36;;;;;;;;;;;;;;;20.88;100.00;101454.19;5056030;28;19928;-71
2023/06/29 03:28:02;;;;;;;;;;;;;;;20.89;100.00;101455.00;5061562;28;19933;-71
2023/06/29 03:30:29;;;;;;;;;;;;;;;20.89;100.00;101447.00;5060167;28;20427;-70
2023/06/29 03:32:58;;;;;;;;;;;;;;;20.89;100.00;101447.00;5066557;28;20014;-71
2023/06/29 03:35:24;;;;;;;;;;;;;;;20.92;100.00;101444.75;5058862;28;19970;-71
2023/06/29 03:37:51;;;;;;;;;;;;;;;20.92;100.00;101447.44;5054044;28;19932;-70
2023/06/29 03:40:17;;;;;;;;;;;;;;;20.92;100.00;101447.44;5064652;28;19929;-70
2023/06/29 03:42:44;;;;;;;;;;;;;;;20.94;100.00;101450.72;5065031;28;20018;-71
2023/06/29 03:45:10;;;;;;;;;;;;;;;20.98;100.00;101445.81;5065849;28;20019;-70
2023/06/29 03:47:36;;;;;;;;;;;;;;;20.95;100.00;101443.53;5057462;28;20031;-70
2023/06/29 03:50:03;;;;;;;;;;;;;;;20.97;100.00;101448.66;5060078;28;20111;-71
2023/06/29 03:52:30;;;;;;;;;;;;;;;21.00;100.00;101446.44;5047633;28;19959;-71
2023/06/29 03:54:56;;;;;;;;;;;;;;;21.01;100.00;101444.56;5051413;28;19972;-71
2023/06/29 03:57:22;;;;;;;;;;;;;;;20.98;100.00;101435.13;5068830;28;19939;-70
2023/06/29 03:59:49;;;;;;;;;;;;;;;20.93;100.00;101440.25;5055241;28;20423;-71
2023/06/29 04:02:15;;;;;;;;;;;;;;;20.87;100.00;101433.03;5056080;28;20185;-71
2023/06/29 04:04:42;;;;;;;;;;;;;;;20.90;100.00;101436.13;5054590;28;20049;-70
2023/06/29 04:07:08;;;;;;;;;;;;;;;20.92;100.00;101433.28;5060583;28;20023;-71
2023/06/29 04:09:35;;;;;;;;;;;;;;;20.94;100.00;101418.72;5058434;28;19925;-71
2023/06/29 04:12:01;;;;;;;;;;;;;;;21.00;100.00;101424.28;5056121;28;19999;-71
2023/06/29 04:14:27;;;;;;;;;;;;;;;21.01;100.00;101417.91;5065079;28;19929;-70
2023/06/29 04:16:54;;;;;;;;;;;;;;;21.06;100.00;101421.63;5059981;28;19966;-71
2023/06/29 04:19:20;;;;;;;;;;;;;;;21.02;100.00;101420.38;5060796;28;19935;-69
2023/06/29 04:21:47;;;;;;;;;;;;;;;21.08;100.00;101421.44;5054657;28;20943;-71
2023/06/29 04:24:13;;;;;;;;;;;;;;;21.10;100.00;101422.03;5065628;28;19955;-70
2023/06/29 04:26:41;;;;;;;;;;;;;;;21.08;100.00;101421.44;5056244;28;19928;-70
2023/06/29 04:29:07;;;;;;;;;;;;;;;21.10;100.00;101414.84;5063542;28;19986;-70
2023/06/29 04:31:33;;;;;;;;;;;;;;;21.14;100.00;101416.09;5060819;28;20343;-70
2023/06/29 04:34:02;;;;;;;;;;;;;;;21.11;100.00;101419.19;5049667;28;19993;-70
2023/06/29 04:36:29;;;;;;;;;;;;;;;21.03;100.00;101421.19;5063787;28;20518;-70
2023/06/29 04:38:55;;;;;;;;;;;;;;;21.06;100.00;101418.94;5059181;28;19928;-71
2023/06/29 04:41:30;;;;;;;;;;;;;;;21.03;100.00;101418.53;5060255;28;19963;-70
2023/06/29 04:43:58;;;;;;;;;;;;;;;21.05;100.00;101413.81;5058387;28;19970;-70
2023/06/29 04:46:24;;;;;;;;;;;;;;;21.05;100.00;101414.66;5061039;28;20062;-70
2023/06/29 04:48:51;;;;;;;;;;;;;;;21.09;100.00;101410.56;5059838;28;19962;-70
2023/06/29 04:51:18;;;;;;;;;;;;;;;21.17;100.00;101416.72;5056802;28;20027;-70
2023/06/29 04:53:45;;;;;;;;;;;;;;;21.15;100.00;101411.59;5064369;28;19955;-71
2023/06/29 04:56:12;;;;;;;;;;;;;;;21.21;100.00;101410.78;5060507;28;20331;-70
2023/06/29 04:58:38;;;;;;;;;;;;;;;21.23;100.00;101403.41;5058970;28;19948;-71
2023/06/29 05:01:04;;;;;;;;;;;;;;;21.22;100.00;101406.25;5058977;28;19982;-70
2023/06/29 05:03:33;;;;;;;;;;;;;;;21.23;100.00;101406.06;5061745;28;19928;-70
2023/06/29 05:05:59;;;;;;;;;;;;;;;21.29;100.00;101404.44;5068901;28;20420;-70
2023/06/29 05:08:26;;;;;;;;;;;;;;;21.28;100.00;101408.13;5061769;28;19934;-70
2023/06/29 05:10:53;;;;;;;;;;;;;;;21.31;100.00;101403.19;5068504;28;20500;-71
2023/06/29 05:13:20;;;;;;;;;;;;;;;21.32;100.00;101396.00;5057512;28;19964;-70
2023/06/29 05:15:48;;;;;;;;;;;;;;;21.31;100.00;101400.53;5059250;28;19929;-71
2023/06/29 05:18:14;;;;;;;;;;;;;;;21.29;100.00;101397.25;5061106;28;19925;-71
2023/06/29 05:20:41;;;;;;;;;;;;;;;21.29;100.00;101404.44;5067143;28;19934;-71
2023/06/29 05:23:09;;;;;;;;;;;;;;;21.28;100.00;101400.13;5063920;28;19933;-70
2023/06/29 05:25:35;;;;;;;;;;;;;;;21.33;100.00;101395.00;5055983;28;20412;-70
2023/06/29 05:28:02;;;;;;;;;;;;;;;21.39;100.00;101396.03;5069140;28;20519;-70
2023/06/29 05:30:28;;;;;;;;;;;;;;;21.42;100.00;101388.41;5052983;28;19958;-70
2023/06/29 05:32:54;;;;;;;;;;;;;;;21.42;100.00;101385.75;5066675;28;19982;-71
2023/06/29 05:35:21;;;;;;;;;;;;;;;21.44;100.00;101386.41;5066443;28;19980;-70
2023/06/29 05:37:47;;;;;;;;;;;;;;;21.48;100.00;101389.47;5062607;28;19956;-71
2023/06/29 05:40:14;;;;;;;;;;;;;;;21.52;100.00;101382.72;5062353;28;19964;-70
2023/06/29 05:42:40;;;;;;;;;;;;;;;21.58;100.00;101383.75;5052246;28;20439;-71
2023/06/29 05:45:07;;;;;;;;;;;;;;;21.56;100.00;101377.78;5065840;28;20407;-70
2023/06/29 05:47:33;;;;;;;;;;;;;;;21.60;100.00;101377.19;5062461;28;20038;-71
2023/06/29 05:49:59;;;;;;;;;;;;;;;21.62;100.00;101380.47;5068285;28;20000;-70
2023/06/29 05:52:26;;;;;;;;;;;;;;;21.67;100.00;101383.31;5067105;28;20398;-70
2023/06/29 05:54:53;;;;;;;;;;;;;;;21.62;100.00;101382.28;5057482;28;20158;-71
2023/06/29 05:57:19;;;;;;;;;;;;;;;21.64;100.00;101383.75;5061984;28;19928;-70
2023/06/29 05:59:45;;;;;;;;;;;;;;;21.56;100.00;101383.13;5061311;28;19925;-70
2023/06/29 06:02:12;;;;;;;;;;;;;;;21.56;100.00;101375.13;5063732;28;19928;-70
2023/06/29 06:04:38;;;;;;;;;;;;;;;21.65;100.00;101374.69;5062112;28;20709;-71
2023/06/29 06:07:05;;;;;;;;;;;;;;;21.64;100.00;101380.25;5049876;28;19959;-70
2023/06/29 06:09:31;;;;;;;;;;;;;;;21.58;100.00;101378.41;5061105;28;19951;-69
2023/06/29 06:11:58;;;;;;;;;;;;;;;21.47;100.00;101378.00;5061109;28;20015;-70
2023/06/29 06:14:24;;;;;;;;;;;;;;;21.44;100.00;101377.56;5057337;28;20393;-70
2023/06/29 06:16:50;;;;;;;;;;;;;;;21.49;100.00;101377.78;5057041;28;20022;-70
2023/06/29 06:19:17;;;;;;;;;;;;;;;21.46;100.00;101373.69;5061146;28;19935;-71
2023/06/29 06:21:43;;;;;;;;;;;;;;;21.46;100.00;101373.69;5054002;28;20392;-71
2023/06/29 06:24:09;;;;;;;;;;;;;;;21.44;100.00;101380.25;5063229;28;20007;-70
2023/06/29 06:26:36;;;;;;;;;;;;;;;21.49;100.00;101373.28;5067479;28;20521;-71
2023/06/29 06:29:02;;;;;;;;;;;;;;;21.57;100.00;101374.91;5061528;28;19986;-70
2023/06/29 06:31:29;;;;;;;;;;;;;;;21.51;100.00;101378.41;5067108;28;19928;-70
2023/06/29 06:34:00;;;;;;;;;;;;;;;21.42;100.00;101375.06;5058475;28;19932;-70
2023/06/29 06:36:29;;;;;;;;;;;;;;;21.45;100.00;101381.91;5059150;28;20125;-69
2023/06/29 06:38:55;;;;;;;;;;;;;;;21.45;100.00;101382.72;5053752;28;19925;-70
2023/06/29 06:41:22;;;;;;;;;;;;;;;21.52;100.00;101377.38;5059784;28;20002;-70
2023/06/29 06:43:48;;;;;;;;;;;;;;;21.59;100.00;101377.38;5060866;28;19968;-71
2023/06/29 06:46:14;;;;;;;;;;;;;;;21.58;100.00;101389.06;5052685;28;20606;-70
2023/06/29 06:48:41;;;;;;;;;;;;;;;21.60;100.00;101373.66;5061972;28;19925;-69
2023/06/29 06:51:07;;;;;;;;;;;;;;;21.53;100.00;101377.16;5055963;28;19982;-70
2023/06/29 06:53:34;;;;;;;;;;;;;;;21.51;100.00;101379.22;5066823;28;19932;-71
2023/06/29 06:56:00;;;;;;;;;;;;;;;21.58;100.00;101383.75;5052019;28;19924;-69
2023/06/29 06:58:27;;;;;;;;;;;;;;;21.55;100.00;101379.63;5066208;28;20399;-68
2023/06/29 07:00:53;;;;;;;;;;;;;;;21.61;100.00;101372.66;5067561;28;19925;-71
2023/06/29 07:03:19;;;;;;;;;;;;;;;21.66;100.00;101375.50;5054289;28;19929;-71
2023/06/29 07:05:46;;;;;;;;;;;;;;;21.68;100.00;101379.63;5053420;28;19932;-70
2023/06/29 07:08:13;;;;;;;;;;;;;;;21.71;100.00;101379.22;5044673;28;19932;-71
2023/06/29 07:10:39;;;;;;;;;;;;;;;21.70;100.00;101374.09;5067039;28;19976;-70
2023/06/29 07:13:06;;;;;;;;;;;;;;;21.72;100.00;101380.88;5059650;28;19928;-70
2023/06/29 07:15:33;;;;;;;;;;;;;;;21.77;100.00;101384.75;5065224;28;20015;-70
2023/06/29 07:17:59;;;;;;;;;;;;;;;21.85;100.00;101385.34;5058519;28;19959;-69
2023/06/29 07:20:25;;;;;;;;;;;;;;;21.92;100.00;101375.50;5047699;28;19955;-70
2023/06/29 07:22:55;;;;;;;;;;;;;;;21.90;100.00;101379.41;5067501;28;19956;-70
2023/06/29 07:25:24;;;;;;;;;;;;;;;21.84;100.00;101372.22;5050546;28;20381;-70
2023/06/29 07:27:50;;;;;;;;;;;;;;;21.84;100.00;101375.72;5065634;28;20027;-70
2023/06/29 07:30:17;;;;;;;;;;;;;;;21.96;100.00;101372.41;5055620;28;20010;-70
2023/06/29 07:32:44;;;;;;;;;;;;;;;21.88;100.00;101370.78;5060470;28;20027;-70
2023/06/29 07:35:10;;;;;;;;;;;;;;;22.02;100.00;101363.56;5047299;28;19958;-71
2023/06/29 07:37:37;;;;;;;;;;;;;;;22.09;100.00;101367.88;5059416;28;19932;-72
2023/06/29 07:40:06;;;;;;;;;;;;;;;22.17;100.00;101364.16;5066470;28;20027;-71
2023/06/29 07:42:33;;;;;;;;;;;;;;;22.09;100.00;101367.88;5056822;28;19928;-71
2023/06/29 07:45:06;;;;;;;;;;;;;;;22.10;100.00;101366.81;5055726;28;19931;-71
2023/06/29 07:47:32;;;;;;;;;;;;;;;22.09;100.00;101369.69;5058618;28;19928;-71
2023/06/29 07:49:58;;;;;;;;;;;;;;;21.94;100.00;101371.81;5064502;28;19929;-71
2023/06/29 07:52:26;;;;;;;;;;;;;;;22.03;100.00;101365.19;5066005;28;19931;-71
2023/06/29 07:54:53;;;;;;;;;;;;;;;22.01;100.00;101365.44;5058989;28;19952;-71
2023/06/29 07:57:19;;;;;;;;;;;;;;;22.09;100.00;101361.69;5060661;28;19929;-72
2023/06/29 07:59:48;;;;;;;;;;;;;;;22.11;100.00;101365.00;5059092;28;19928;-71
2023/06/29 08:02:15;;;;;;;;;;;;;;;22.19;100.00;101364.75;5063203;28;20027;-72
2023/06/29 08:04:41;;;;;;;;;;;;;;;22.33;100.00;101365.56;5040502;28;19928;-71
2023/06/29 08:07:12;;;;;;;;;;;;;;;22.40;100.00;101368.19;5060472;28;20324;-72
2023/06/29 08:09:39;;;;;;;;;;;;;;;22.39;100.00;101359.38;5062975;28;19954;-71
2023/06/29 08:12:05;;;;;;;;;;;;;;;22.60;100.00;101358.25;5056203;28;19928;-71
2023/06/29 08:14:34;;;;;;;;;;;;;;;22.64;100.00;101366.66;5065128;28;19955;-71
2023/06/29 08:17:02;;;;;;;;;;;;;;;22.74;100.00;101355.50;5059742;28;20367;-71
2023/06/29 08:19:28;;;;;;;;;;;;;;;22.85;100.00;101357.50;5058629;28;19933;-72
2023/06/29 08:21:55;;;;;;;;;;;;;;;22.85;100.00;101354.81;5051031;28;20357;-71
2023/06/29 08:24:21;;;;;;;;;;;;;;;22.79;94.97;101356.50;5060577;28;19932;-71
2023/06/29 08:26:48;;;;;;;;;;;;;;;22.80;96.56;101347.44;5068102;28;19999;-71
2023/06/29 08:29:15;;;;;;;;;;;;;;;22.97;94.18;101344.25;5053499;28;20006;-72
2023/06/29 08:31:41;;;;;;;;;;;;;;;23.04;92.94;101347.75;5068871;28;20700;-72
2023/06/29 08:34:07;;;;;;;;;;;;;;;23.09;88.75;101345.22;5057738;28;19960;-72
2023/06/29 08:36:35;;;;;;;;;;;;;;;23.20;91.65;101349.06;5064510;28;20425;-71
2023/06/29 08:39:01;;;;;;;;;;;;;;;23.25;86.67;101350.06;5061571;28;19929;-71
2023/06/29 08:41:28;;;;;;;;;;;;;;;23.36;84.20;101343.16;5059181;28;19939;-71
2023/06/29 08:43:55;;;;;;;;;;;;;;;23.33;79.73;101348.97;5064005;28;20023;-72
2023/06/29 08:46:21;;;;;;;;;;;;;;;23.56;82.56;101353.72;5061551;28;19932;-71
2023/06/29 08:48:48;;;;;;;;;;;;;;;23.79;79.15;101350.41;5060136;28;20013;-71
2023/06/29 08:51:17;;;;;;;;;;;;;;;23.84;77.43;101349.78;5055505;28;19975;-72
2023/06/29 08:53:43;;;;;;;;;;;;;;;23.83;76.72;101353.47;5063045;28;19929;-71
2023/06/29 08:56:10;;;;;;;;;;;;;;;23.81;77.98;101352.88;5062212;28;19964;-70
2023/06/29 08:58:38;;;;;;;;;;;;;;;23.90;81.56;101350.75;5062709;28;19967;-71
2023/06/29 09:01:06;;;;;;;;;;;;;;;23.72;78.79;101355.00;5064907;28;19932;-70
2023/06/29 09:03:32;;;;;;;;;;;;;;;23.85;81.51;101349.53;5049035;28;20573;-71
2023/06/29 09:05:59;;;;;;;;;;;;;;;23.80;81.63;101346.72;5067140;28;20312;-70
2023/06/29 09:08:26;;;;;;;;;;;;;;;23.79;80.91;101347.75;5062159;28;19935;-71
2023/06/29 09:10:53;;;;;;;;;;;;;;;23.89;83.76;101347.22;5068395;28;19924;-72
2023/06/29 09:13:24;;;;;;;;;;;;;;;23.93;81.80;101352.97;5062783;28;19928;-70
2023/06/29 09:15:52;;;;;;;;;;;;;;;23.87;83.08;101351.97;5056597;28;19925;-70
2023/06/29 09:18:20;;;;;;;;;;;;;;;24.10;85.49;101345.97;5065574;28;19939;-70
2023/06/29 09:20:49;;;;;;;;;;;;;;;24.22;82.19;101338.00;5049801;28;19924;-71
2023/06/29 09:23:16;;;;;;;;;;;;;;;24.33;81.61;101339.94;5067543;28;19936;-71
2023/06/29 09:25:42;;;;;;;;;;;;;;;24.40;82.91;101332.59;5056860;28;19947;-72
2023/06/29 09:28:09;;;;;;;;;;;;;;;24.66;81.39;101330.66;5062563;28;19972;-71
2023/06/29 09:30:37;;;;;;;;;;;;;;;24.82;80.29;101338.06;5055359;28;20286;-71
2023/06/29 09:33:04;;;;;;;;;;;;;;;24.89;76.40;101332.59;5059656;28;20438;-70
2023/06/29 09:35:31;;;;;;;;;;;;;;;24.73;75.33;101326.00;5046297;28;19964;-71
2023/06/29 09:38:00;;;;;;;;;;;;;;;24.85;75.86;101331.41;5057003;28;20011;-70
2023/06/29 09:40:26;;;;;;;;;;;;;;;25.01;75.44;101328.09;5068338;28;20026;-72
2023/06/29 09:42:53;;;;;;;;;;;;;;;24.98;71.89;101335.78;5055528;28;19959;-70
2023/06/29 09:45:19;;;;;;;;;;;;;;;25.17;69.79;101326.59;5055038;28;20019;-71
2023/06/29 09:47:49;;;;;;;;;;;;;;;25.16;69.14;101326.81;5061794;28;19931;-71
2023/06/29 09:50:19;;;;;;;;;;;;;;;25.13;68.66;101320.06;5066011;28;19929;-70
2023/06/29 09:52:47;;;;;;;;;;;;;;;25.14;68.13;101326.22;5065551;28;19970;-72
2023/06/29 09:55:14;;;;;;;;;;;;;;;25.37;71.08;101328.16;5055966;28;20336;-71
2023/06/29 09:57:42;;;;;;;;;;;;;;;25.55;68.47;101314.59;5062199;28;20401;-70
2023/06/29 10:00:12;;;;;;;;;;;;;;;25.68;68.39;101326.16;5063990;28;20764;-71
2023/06/29 10:02:39;;;;;;;;;;;;;;;25.50;67.17;101327.94;5066820;28;19965;-71
2023/06/29 10:05:07;;;;;;;;;;;;;;;25.53;68.64;101326.63;5065824;28;20007;-70
2023/06/29 10:07:35;;;;;;;;;;;;;;;25.49;68.39;101325.47;5058015;28;20347;-71
2023/06/29 10:10:02;;;;;;;;;;;;;;;25.44;67.98;101327.00;5058763;28;19959;-70
2023/06/29 10:12:28;;;;;;;;;;;;;;;25.46;69.64;101321.38;5059995;28;19924;-70
2023/06/29 10:14:56;;;;;;;;;;;;;;;25.43;69.87;101324.53;5066932;28;19925;-70
2023/06/29 10:17:30;;;;;;;;;;;;;;;25.42;69.95;101323.72;5056259;28;19936;-70
2023/06/29 10:19:57;;;;;;;;;;;;;;;25.31;69.54;101319.16;5065738;28;19924;-71
2023/06/29 10:22:25;;;;;;;;;;;;;;;25.09;70.17;101329.63;5053540;28;19928;-71
2023/06/29 10:24:54;;;;;;;;;;;;;;;25.00;72.08;101326.44;5061321;28;19929;-71
2023/06/29 10:27:22;;;;;;;;;;;;;;;25.01;71.93;101319.19;5062964;28;19924;-70
2023/06/29 10:29:50;;;;;;;;;;;;;;;25.12;71.38;101321.09;5058476;28;20739;-70
2023/06/29 10:32:35;;;;;;;;;;;;;;;25.26;72.38;101316.34;5066974;28;20842;-71
2023/06/29 10:35:02;;;;;;;;;;;;;;;25.27;72.28;101312.63;5055314;28;19928;-71
2023/06/29 10:37:29;;;;;;;;;;;;;;;25.39;73.56;101315.31;5062034;28;19928;-70
2023/06/29 10:39:58;;;;;;;;;;;;;;;25.54;70.75;101312.13;5060313;28;19925;-70
2023/06/29 10:42:24;;;;;;;;;;;;;;;25.58;70.87;101311.47;5065923;28;19928;-70
2023/06/29 10:44:50;;;;;;;;;;;;;;;25.59;69.57;101306.91;5066114;28;19982;-70
2023/06/29 10:47:27;;;;;;;;;;;;;;;25.79;69.81;101304.63;5061729;28;20902;-70
2023/06/29 10:50:21;;;;;;;;;;;;;;;25.97;68.03;101309.09;5060420;28;19925;-71
2023/06/29 10:52:49;;;;;;;;;;;;;;;26.02;66.04;101305.69;5051462;28;19951;-71
2023/06/29 10:55:19;;;;;;;;;;;;;;;25.98;63.92;101316.09;5063079;28;19924;-70
2023/06/29 10:57:46;;;;;;;;;;;;;;;25.74;63.17;101301.06;5060098;28;19932;-70
2023/06/29 11:00:14;;;;;;;;;;;;;;;25.87;64.01;101305.34;5063660;28;19924;-70
2023/06/29 11:02:42;;;;;;;;;;;;;;;25.66;62.13;101304.91;5053160;28;19928;-70
2023/06/29 11:05:15;;;;;;;;;;;;;;;25.71;64.75;101302.31;5059470;28;20018;-70
2023/06/29 11:07:42;;;;;;;;;;;;;;;25.55;61.29;101298.50;5061727;28;20018;-70
2023/06/29 11:10:09;;;;;;;;;;;;;;;25.50;62.51;101301.06;5058987;28;19970;-71
2023/06/29 11:12:36;;;;;;;;;;;;;;;25.54;63.31;101298.72;5065701;28;19924;-72
2023/06/29 11:15:03;;;;;;;;;;;;;;;25.77;63.48;101300.56;5057733;28;20361;-69
2023/06/29 11:17:48;;;;;;;;;;;;;;;25.72;63.32;101297.75;5058884;28;19931;-71
2023/06/29 11:20:15;;;;;;;;;;;;;;;25.62;62.01;101293.81;5057609;28;19928;-70
2023/06/29 11:22:45;;;;;;;;;;;;;;;25.56;62.75;101302.81;5064548;28;21278;-72
2023/06/29 11:25:12;;;;;;;;;;;;;;;25.41;63.21;101305.16;5064685;28;20477;-71
2023/06/29 11:27:38;;;;;;;;;;;;;;;25.58;64.67;101300.72;5059341;28;19925;-72
2023/06/29 11:30:07;;;;;;;;;;;;;;;25.68;63.75;101302.81;5063322;28;19928;-72
2023/06/29 11:32:33;;;;;;;;;;;;;;;25.89;63.14;101298.66;5047780;28;19935;-71
2023/06/29 11:35:01;;;;;;;;;;;;;;;26.13;63.73;101298.63;5061689;28;19935;-70
2023/06/29 11:37:27;;;;;;;;;;;;;;;25.88;62.59;101306.97;5059093;28;20568;-69
2023/06/29 11:39:54;;;;;;;;;;;;;;;25.96;62.67;101302.06;5064686;28;20066;-74
2023/06/29 11:42:21;;;;;;;;;;;;;;;25.88;63.81;101296.25;5064899;28;19943;-71
2023/06/29 11:44:49;;;;;;;;;;;;;;;25.62;63.15;101299.19;5055146;28;20396;-70
2023/06/29 11:47:16;;;;;;;;;;;;;;;25.48;62.85;101303.16;5056976;28;19924;-70
2023/06/29 11:50:03;;;;;;;;;;;;;;;25.34;63.80;101296.38;5057446;28;19925;-73
2023/06/29 11:52:31;;;;;;;;;;;;;;;25.42;63.78;101293.34;5054994;28;19935;-72
2023/06/29 11:55:00;;;;;;;;;;;;;;;25.58;64.41;101287.28;5058493;28;19978;-70
2023/06/29 11:57:30;;;;;;;;;;;;;;;25.54;64.09;101287.97;5065008;28;20312;-69
2023/06/29 11:59:56;;;;;;;;;;;;;;;25.81;64.57;101280.22;5057718;28;19959;-72
2023/06/29 12:02:23;;;;;;;;;;;;;;;26.01;62.79;101280.69;5048630;28;20024;-73
2023/06/29 12:04:56;;;;;;;;;;;;;;;26.04;63.03;101277.50;5062266;28;19970;-72
2023/06/29 12:07:33;;;;;;;;;;;;;;;26.16;62.24;101273.97;5061446;28;20599;-71
2023/06/29 12:10:04;;;;;;;;;;;;;;;26.24;59.92;101278.97;5062349;28;19978;-70
2023/06/29 12:12:33;;;;;;;;;;;;;;;26.08;61.14;101275.16;5062160;28;20564;-70
2023/06/29 12:15:10;;;;;;;;;;;;;;;25.99;61.01;101265.84;5063964;28;20011;-70
2023/06/29 12:17:36;;;;;;;;;;;;;;;26.02;61.72;101262.69;5058604;28;19924;-71
2023/06/29 12:20:13;;;;;;;;;;;;;;;25.99;61.50;101271.22;5062040;28;20381;-71
2023/06/29 12:22:40;;;;;;;;;;;;;;;25.91;61.27;101263.53;5069784;28;19939;-71
2023/06/29 12:25:11;;;;;;;;;;;;;;;25.93;62.04;101264.91;5057668;28;19929;-72
2023/06/29 12:27:41;;;;;;;;;;;;;;;25.81;61.24;101253.34;5069168;28;20839;-69
2023/06/29 12:30:09;;;;;;;;;;;;;;;25.94;61.71;101273.81;5061578;28;19976;-68
2023/06/29 12:32:36;;;;;;;;;;;;;;;25.93;62.58;101266.78;5068794;28;20309;-70